createdAt,value
2023-02-14T04:54:24.809Z,0.67
2023-02-14T04:57:27.983Z,0.54
2023-02-14T05:00:30.736Z,0.44
2023-02-14T05:03:33.704Z,0.37
2023-02-14T05:06:36.343Z,0.32
2023-02-14T05:09:39.209Z,0.28
2023-02-14T05:12:41.775Z,0.21
2023-02-14T05:15:45.599Z,0.16
2023-02-14T05:18:48.234Z,0.14
2023-02-14T05:21:51.098Z,0.10
2023-02-14T05:24:53.727Z,0.06
2023-02-14T05:27:57.451Z,0.02
2023-02-14T05:31:00.632Z,-0.03
2023-02-14T05:34:03.940Z,-0.06
2023-02-14T05:37:06.632Z,-0.12
2023-02-14T05:40:13.303Z,-0.17
2023-02-14T05:43:15.940Z,-0.20
2023-02-14T05:46:18.922Z,-0.21
2023-02-14T05:49:21.874Z,-0.24
2023-02-14T05:52:25.143Z,-0.34
2023-02-14T05:55:27.984Z,-0.46
2023-02-14T05:58:31.615Z,-0.47
2023-02-14T06:01:34.285Z,-0.49
2023-02-14T06:04:37.218Z,-0.56
2023-02-14T06:07:39.901Z,-0.59
2023-02-14T06:10:42.842Z,-0.59
2023-02-14T06:13:45.650Z,-0.57
2023-02-14T06:16:48.538Z,-0.59
2023-02-14T06:19:51.276Z,-0.55
2023-02-14T06:22:54.971Z,-0.51
2023-02-14T06:25:57.585Z,-0.46
2023-02-14T06:29:00.643Z,-0.38
2023-02-14T06:32:06.862Z,-0.25
2023-02-14T06:35:09.915Z,-0.18
2023-02-14T06:38:12.591Z,-0.05
2023-02-14T06:41:17.193Z,0.06
2023-02-14T06:44:19.901Z,0.21
2023-02-14T06:47:22.778Z,0.35
2023-02-14T06:50:25.473Z,0.52
2023-02-14T06:53:28.404Z,0.74
2023-02-14T06:56:31.172Z,1.02
2023-02-14T06:59:34.159Z,1.16
2023-02-14T07:02:36.890Z,1.36
2023-02-14T07:05:39.930Z,1.53
2023-02-14T07:08:42.644Z,1.71
2023-02-14T07:11:46.232Z,1.85
2023-02-14T07:14:48.817Z,2.03
2023-02-14T07:17:51.715Z,2.25
2023-02-14T07:20:55.044Z,2.37
2023-02-14T07:23:58.502Z,2.64
2023-02-14T07:27:01.113Z,2.87
2023-02-14T07:30:05.448Z,3.00
2023-02-14T07:33:08.233Z,3.12
2023-02-14T07:36:11.436Z,3.26
2023-02-14T07:39:14.124Z,3.45
2023-02-14T07:42:17.220Z,3.69
2023-02-14T07:45:22.317Z,3.77
2023-02-14T07:48:25.424Z,3.88
2023-02-14T07:51:28.059Z,4.03
2023-02-14T07:54:30.958Z,4.10
2023-02-14T07:57:33.854Z,4.31
2023-02-14T08:00:36.916Z,4.48
2023-02-14T08:03:40.607Z,4.61
2023-02-14T08:06:43.911Z,4.67
2023-02-14T08:09:46.877Z,4.77
2023-02-14T08:12:59.356Z,5.07
2023-02-14T08:16:05.764Z,5.38
2023-02-14T08:19:08.547Z,5.41
2023-02-14T08:22:11.805Z,5.64
2023-02-14T08:25:14.589Z,5.82
2023-02-14T08:28:18.503Z,5.99
2023-02-14T08:31:35.071Z,5.94
2023-02-14T08:34:39.161Z,6.19
2023-02-14T08:37:41.766Z,6.29
2023-02-14T08:40:44.954Z,6.28
2023-02-14T08:43:47.593Z,6.32
2023-02-14T08:46:50.738Z,6.49
2023-02-14T08:49:53.542Z,6.44
2023-02-14T08:52:56.491Z,6.49
2023-02-14T08:56:10.945Z,6.77
2023-02-14T08:59:14.343Z,6.84
2023-02-14T09:02:17.295Z,6.97
2023-02-14T09:05:23.488Z,7.08
2023-02-14T09:08:26.228Z,7.22
2023-02-14T09:11:29.228Z,7.15
2023-02-14T09:14:36.221Z,7.04
2023-02-14T09:17:39.270Z,7.21
2023-02-14T09:20:44.524Z,6.99
2023-02-14T09:23:47.747Z,7.09
2023-02-14T09:26:50.392Z,7.08
2023-02-14T09:29:55.185Z,7.22
2023-02-14T09:32:57.964Z,7.27
2023-02-14T09:36:12.983Z,7.49
2023-02-14T09:39:16.018Z,7.54
2023-02-14T09:42:45.521Z,7.32
2023-02-14T09:45:53.253Z,7.69
2023-02-14T09:48:57.766Z,7.68
2023-02-14T09:52:03.822Z,7.99
2023-02-14T09:55:15.661Z,8.29
2023-02-14T09:58:50.638Z,8.30
2023-02-14T10:02:18.991Z,8.09
2023-02-14T10:05:38.168Z,7.76
2023-02-14T10:08:40.766Z,7.72
2023-02-14T10:11:47.551Z,7.71
2023-02-14T10:14:52.651Z,7.70
2023-02-14T10:18:06.894Z,7.85
2023-02-14T10:21:16.970Z,7.71
2023-02-14T10:24:31.527Z,7.88
2023-02-14T10:27:46.160Z,8.03
2023-02-14T10:31:04.877Z,8.13
2023-02-14T10:34:10.395Z,8.30
2023-02-14T10:37:22.218Z,8.54
2023-02-14T10:40:40.758Z,8.65
2023-02-14T10:44:03.328Z,8.73
2023-02-14T10:47:23.642Z,8.96
2023-02-14T10:50:40.806Z,8.99
2023-02-14T10:54:18.495Z,8.45
2023-02-14T10:57:34.893Z,8.75
2023-02-14T11:00:51.152Z,8.69
2023-02-14T11:04:04.286Z,8.87
2023-02-14T11:07:16.369Z,8.95
2023-02-14T11:10:26.326Z,9.16
2023-02-14T11:13:33.508Z,9.13
2023-02-14T11:16:37.548Z,9.47
2023-02-14T11:19:40.386Z,9.36
2023-02-14T11:22:43.303Z,9.53
2023-02-14T11:25:51.444Z,9.11
2023-02-14T11:28:59.193Z,8.83
2023-02-14T11:32:20.312Z,8.71
2023-02-14T11:35:34.465Z,9.19
2023-02-14T11:38:39.995Z,9.79
2023-02-14T11:41:47.417Z,10.13
2023-02-14T11:44:56.574Z,10.33
2023-02-14T11:53:22.808Z,11.22
2023-02-14T11:56:43.313Z,11.19
2023-02-14T11:59:52.718Z,11.70
2023-02-14T12:02:55.956Z,12.14
2023-02-14T12:06:02.099Z,12.98
2023-02-14T12:09:23.049Z,13.40
2023-02-14T12:12:26.573Z,14.06
2023-02-14T12:15:36.673Z,14.49
2023-02-14T12:18:47.288Z,15.29
2023-02-14T12:22:06.682Z,16.07
2023-02-14T12:25:17.300Z,16.59
2023-02-14T12:28:28.074Z,18.10
2023-02-14T12:31:31.676Z,19.70
2023-02-14T12:34:36.263Z,19.77
2023-02-14T12:37:46.949Z,19.18
2023-02-14T12:41:17.551Z,18.82
2023-02-14T12:44:51.623Z,18.52
2023-02-14T12:48:19.347Z,20.27
2023-02-14T12:51:32.127Z,20.74
2023-02-14T12:54:43.436Z,20.32
2023-02-14T12:57:54.519Z,20.41
2023-02-14T13:01:00.530Z,21.81
2023-02-14T13:04:36.219Z,21.05
2023-02-14T13:08:19.882Z,22.65
2023-02-14T13:11:32.493Z,20.54
2023-02-14T13:15:06.964Z,17.01
2023-02-14T13:18:17.049Z,14.32
2023-02-14T13:21:24.485Z,13.09
2023-02-14T13:24:34.730Z,12.16
2023-02-14T13:27:40.105Z,11.29
2023-02-14T13:30:43.177Z,10.89
2023-02-14T13:33:59.002Z,10.54
2023-02-14T13:37:06.230Z,10.19
2023-02-14T13:40:19.135Z,10.00
2023-02-14T13:43:48.598Z,9.88
2023-02-14T13:46:52.214Z,9.67
2023-02-14T13:50:03.069Z,9.52
2023-02-14T13:53:12.106Z,9.41
2023-02-14T13:56:17.645Z,9.35
2023-02-14T13:59:34.919Z,9.24
2023-02-14T14:02:54.954Z,9.15
2023-02-14T14:06:03.446Z,9.11
2023-02-14T14:09:10.773Z,8.90
2023-02-14T14:12:29.196Z,8.84
2023-02-14T14:15:31.787Z,8.79
2023-02-14T14:18:38.718Z,8.69
2023-02-14T14:21:44.652Z,8.56
2023-02-14T14:25:06.413Z,8.61
2023-02-14T14:28:18.310Z,8.58
2023-02-14T14:31:21.788Z,8.57
2023-02-14T14:34:28.296Z,8.60
2023-02-14T14:37:37.155Z,8.59
2023-02-14T14:40:47.339Z,8.47
2023-02-14T14:43:50.497Z,8.45
2023-02-14T14:46:53.180Z,8.46
2023-02-14T14:50:07.760Z,8.42
2023-02-14T14:53:29.378Z,8.29
2023-02-14T14:56:35.388Z,8.29
2023-02-14T14:59:39.602Z,8.20
2023-02-14T15:02:42.516Z,8.16
2023-02-14T15:05:50.432Z,8.03
2023-02-14T15:08:54.542Z,7.94
2023-02-14T15:12:18.627Z,7.84
2023-02-14T15:15:22.507Z,7.81
2023-02-14T15:18:25.662Z,7.77
2023-02-14T15:21:31.492Z,7.69
2023-02-14T15:24:38.036Z,7.58
2023-02-14T15:27:41.916Z,7.47
2023-02-14T15:30:46.687Z,7.39
2023-02-14T15:33:50.105Z,7.38
2023-02-14T15:36:57.473Z,7.27
2023-02-14T15:40:02.608Z,7.17
2023-02-14T15:43:25.166Z,7.06
2023-02-14T15:46:36.679Z,6.93
2023-02-14T15:49:42.355Z,6.82
2023-02-14T15:52:47.603Z,6.68
2023-02-14T15:55:50.808Z,6.57
2023-02-14T15:58:59.577Z,6.51
2023-02-14T16:02:27.440Z,6.36
2023-02-14T16:05:31.174Z,6.20
2023-02-14T16:08:38.053Z,6.15
2023-02-14T16:11:41.385Z,6.03
2023-02-14T16:14:46.168Z,5.93
2023-02-14T16:17:49.317Z,5.83
2023-02-14T16:20:51.902Z,5.66
2023-02-14T16:24:07.853Z,5.57
2023-02-14T16:27:13.271Z,5.46
2023-02-14T16:30:19.792Z,5.33
2023-02-14T16:33:26.317Z,5.25
2023-02-14T16:36:34.003Z,5.32
2023-02-14T16:39:41.042Z,5.30
2023-02-14T16:42:47.174Z,5.20
2023-02-14T16:45:50.315Z,5.13
2023-02-14T16:48:53.587Z,5.11
2023-02-14T16:51:59.388Z,5.01
2023-02-14T16:55:02.901Z,4.97
2023-02-14T16:58:05.674Z,4.89
